AAL1903 KRDU-KCLT
Flight info
| Callsign | AAL1903 |
|---|---|
| Flight time | N/A |
| Altitude | 16000 |
| Route | CATAR SDAIL CHSLY6 |
| Aircraft | A21N/M-SDE2E3FGHIRWXY/LB1 |
Departure
| Time | 2026-05-07 23:20 |
|---|---|
| Airport | Raleigh-Durham International Airport (KRDU) |
Arrival
| Time | N/A |
|---|---|
| Airport | Charlotte Douglas International Airport (KCLT) |
| Time | Latitude | Longitude | Altitude | Speed | Heading |
|---|---|---|---|---|---|
| 2026-05-07 23:06 | 35.87931 | -78.79199 | 393 ft | 0 kts | 135° |
| 2026-05-07 23:10 | 35.87932 | -78.79200 | 393 ft | 0 kts | 135° |
| 2026-05-07 23:10 | 35.87941 | -78.79212 | 392 ft | 2 kts | 130° |
| 2026-05-07 23:10 | 35.87951 | -78.79225 | 391 ft | 2 kts | 136° |
| 2026-05-07 23:11 | 35.87963 | -78.79238 | 390 ft | 2 kts | 160° |
| 2026-05-07 23:11 | 35.87978 | -78.79240 | 390 ft | 2 kts | 194° |
| 2026-05-07 23:11 | 35.87989 | -78.79233 | 390 ft | 0 kts | 222° |
| 2026-05-07 23:11 | 35.87993 | -78.79227 | 390 ft | 1 kts | 226° |
| 2026-05-07 23:12 | 35.87994 | -78.79226 | 390 ft | 0 kts | 226° |
| 2026-05-07 23:16 | 35.87977 | -78.79247 | 390 ft | 9 kts | 225° |
| 2026-05-07 23:17 | 35.87930 | -78.79346 | 387 ft | 15 kts | 261° |
| 2026-05-07 23:17 | 35.87875 | -78.79474 | 382 ft | 18 kts | 226° |
| 2026-05-07 23:17 | 35.87784 | -78.79587 | 380 ft | 19 kts | 225° |
| 2026-05-07 23:17 | 35.87691 | -78.79700 | 378 ft | 19 kts | 224° |
| 2026-05-07 23:18 | 35.87593 | -78.79821 | 375 ft | 20 kts | 225° |
| 2026-05-07 23:18 | 35.87490 | -78.79949 | 371 ft | 21 kts | 225° |
| 2026-05-07 23:18 | 35.87398 | -78.80070 | 367 ft | 12 kts | 246° |
| 2026-05-07 23:18 | 35.87434 | -78.80157 | 363 ft | 7 kts | 320° |
| 2026-05-07 23:19 | 35.87467 | -78.80163 | 363 ft | 0 kts | 35° |
| 2026-05-07 23:19 | 35.87493 | -78.80135 | 364 ft | 27 kts | 44° |
| 2026-05-07 23:19 | 35.87589 | -78.80017 | 367 ft | 67 kts | 45° |
| 2026-05-07 23:19 | 35.87812 | -78.79742 | 374 ft | 112 kts | 45° |
| 2026-05-07 23:20 | 35.88535 | -78.78848 | 442 ft | 179 kts | 45° |
| 2026-05-07 23:20 | 35.89423 | -78.77750 | 1309 ft | 186 kts | 43° |
| 2026-05-07 23:20 | 35.90279 | -78.76679 | 2564 ft | 162 kts | 49° |
| 2026-05-07 23:20 | 35.90458 | -78.75563 | 2877 ft | 134 kts | 102° |
| 2026-05-07 23:21 | 35.90041 | -78.74396 | 2159 ft | 168 kts | 112° |
| 2026-05-07 23:21 | 35.89384 | -78.73267 | 2144 ft | 157 kts | 130° |
| 2026-05-07 23:21 | 35.88367 | -78.72708 | 2086 ft | 176 kts | 184° |
| 2026-05-07 23:21 | 35.87273 | -78.73216 | 1969 ft | 164 kts | 208° |
| 2026-05-07 23:22 | 35.86306 | -78.73910 | 1728 ft | 160 kts | 214° |
| 2026-05-07 23:22 | 35.85334 | -78.74715 | 1607 ft | 164 kts | 218° |
| 2026-05-07 23:22 | 35.84401 | -78.75676 | 1644 ft | 183 kts | 221° |
| 2026-05-07 23:22 | 35.83511 | -78.76735 | 1734 ft | 178 kts | 227° |
| 2026-05-07 23:23 | 35.82740 | -78.77711 | 1886 ft | 144 kts | 231° |
| 2026-05-07 23:23 | 35.82052 | -78.78622 | 1821 ft | 139 kts | 232° |
| 2026-05-07 23:23 | 35.81512 | -78.79711 | 1581 ft | 166 kts | 277° |
| 2026-05-07 23:23 | 35.81994 | -78.80710 | 1467 ft | 129 kts | 344° |
| 2026-05-07 23:24 | 35.82840 | -78.80719 | 1338 ft | 117 kts | 22° |
| 2026-05-07 23:24 | 35.83689 | -78.80706 | 1153 ft | 137 kts | 347° |
| 2026-05-07 23:24 | 35.84533 | -78.81017 | 996 ft | 123 kts | 347° |
| 2026-05-07 23:24 | 35.85359 | -78.81300 | 749 ft | 132 kts | 358° |
| 2026-05-07 23:25 | 35.86206 | -78.81219 | 673 ft | 125 kts | 18° |
| 2026-05-07 23:25 | 35.87025 | -78.80685 | 503 ft | 136 kts | 41° |
| 2026-05-07 23:25 | 35.87666 | -78.79930 | 370 ft | 118 kts | 51° |
| 2026-05-07 23:25 | 35.88150 | -78.79324 | 381 ft | 56 kts | 45° |
| 2026-05-07 23:26 | 35.88238 | -78.79220 | 384 ft | 8 kts | 39° |